Time;durP1;ratioP1;P1;durP2;ratioP2;P2;SDS_P1;SDS_P2;PMS_P1;PMS_P2;Temp;Humidity;BMP_temperature;BMP_pressure;BME280_temperature;BME280_humidity;BME280_pressure;Samples;Min_cycle;Max_cycle;Signal;HPM_P1;HPM_P2
2023/10/08 00:01:16;;;;;;;5.25;2.00;;;20.30;77.20;;;;;;5055025;28;20037;-63
2023/10/08 00:03:49;;;;;;;4.15;1.55;;;20.30;77.10;;;;;;5060864;28;20515;-63
2023/10/08 00:06:20;;;;;;;6.10;2.05;;;20.30;77.30;;;;;;5068219;28;20032;-63
2023/10/08 00:08:46;;;;;;;1.80;1.38;;;20.30;77.40;;;;;;5069038;28;20033;-63
2023/10/08 00:11:11;;;;;;;6.10;1.67;;;20.30;77.40;;;;;;5049971;28;20464;-66
2023/10/08 00:13:41;;;;;;;3.90;1.38;;;20.30;77.40;;;;;;5070666;28;20040;-66
2023/10/08 00:16:11;;;;;;;8.00;1.77;;;20.30;77.50;;;;;;5065608;28;20387;-66
2023/10/08 00:18:40;;;;;;;5.28;2.38;;;20.30;77.50;;;;;;5065100;28;20071;-66
2023/10/08 00:26:29;;;;;;;2.22;0.98;;;20.30;77.90;;;;;;5066594;28;20403;-66
2023/10/08 00:29:06;;;;;;;2.33;1.27;;;20.30;77.90;;;;;;5068970;28;20056;-66
2023/10/08 00:31:40;;;;;;;4.20;1.65;;;20.30;77.90;;;;;;5061041;28;20037;-66
2023/10/08 00:34:11;;;;;;;3.42;2.33;;;20.20;78.00;;;;;;5066550;28;20027;-66
2023/10/08 00:36:37;;;;;;;3.50;2.15;;;20.30;78.00;;;;;;5062268;28;20048;-64
2023/10/08 00:39:13;;;;;;;7.13;1.67;;;20.30;77.90;;;;;;5059833;28;20032;-63
2023/10/08 00:41:42;;;;;;;3.90;1.35;;;20.30;77.90;;;;;;5065125;28;20044;-64
2023/10/08 00:44:12;;;;;;;8.55;2.47;;;20.30;78.00;;;;;;5048759;28;20456;-64
2023/10/08 00:46:49;;;;;;;4.55;1.27;;;20.30;78.10;;;;;;5046937;28;20044;-63
2023/10/08 00:52:57;;;;;;;6.55;2.08;;;20.30;78.40;;;;;;5056059;28;20037;-67
2023/10/08 00:55:09;;;;;;;4.50;1.83;;;20.20;78.40;;;;;;5046758;28;20041;-66
2023/10/08 00:57:36;;;;;;;2.95;1.50;;;20.20;78.40;;;;;;5052492;28;20476;-66
2023/10/08 01:00:06;;;;;;;3.55;1.85;;;20.20;78.40;;;;;;5061152;28;20444;-66
2023/10/08 01:05:12;;;;;;;7.13;1.40;;;20.20;78.50;;;;;;5065263;28;20040;-66
2023/10/08 01:07:44;;;;;;;3.67;1.50;;;20.20;78.50;;;;;;5066981;28;20075;-66
2023/10/08 01:10:10;;;;;;;2.75;1.50;;;20.20;78.50;;;;;;5060863;28;20142;-66
2023/10/08 01:12:50;;;;;;;6.22;1.50;;;20.20;78.50;;;;;;5064349;28;20034;-66
2023/10/08 01:15:23;;;;;;;6.28;1.30;;;20.30;78.40;;;;;;5058686;28;20041;-66
2023/10/08 01:18:14;;;;;;;2.78;1.52;;;20.30;78.40;;;;;;5064502;28;20024;-67
2023/10/08 01:20:51;;;;;;;3.63;2.05;;;20.30;78.40;;;;;;5064333;28;20033;-66
2023/10/08 01:23:20;;;;;;;5.88;2.20;;;20.20;78.70;;;;;;5050830;28;20482;-66
2023/10/08 01:28:33;;;;;;;2.90;1.55;;;20.20;78.90;;;;;;5064755;28;20433;-66
2023/10/08 01:31:04;;;;;;;2.85;1.15;;;20.20;79.00;;;;;;5069071;28;20027;-66
2023/10/08 01:33:31;;;;;;;3.85;1.42;;;20.20;78.90;;;;;;5065664;28;20036;-66
2023/10/08 01:36:04;;;;;;;3.58;1.35;;;20.20;78.80;;;;;;5067429;28;20020;-66
2023/10/08 01:38:32;;;;;;;2.95;1.65;;;20.20;78.70;;;;;;5065047;28;20110;-66
2023/10/08 01:41:03;;;;;;;1.38;1.10;;;20.20;78.80;;;;;;5066459;28;20104;-66
2023/10/08 01:43:29;;;;;;;2.03;1.45;;;20.20;78.70;;;;;;5052155;28;20036;-66
2023/10/08 01:45:55;;;;;;;2.55;1.00;;;20.20;78.80;;;;;;5067587;28;20021;-66
2023/10/08 01:48:37;;;;;;;3.28;1.58;;;20.20;78.80;;;;;;5050753;28;20103;-66
2023/10/08 01:51:08;;;;;;;1.47;0.90;;;20.20;78.90;;;;;;5066938;28;20055;-66
2023/10/08 01:53:36;;;;;;;3.42;2.00;;;20.10;79.00;;;;;;5067409;28;20029;-66
2023/10/08 01:56:04;;;;;;;1.60;0.90;;;20.10;79.00;;;;;;5063947;28;20064;-66
2023/10/08 01:58:30;;;;;;;4.25;2.05;;;20.10;79.00;;;;;;5068627;28;20431;-66
2023/10/08 02:00:59;;;;;;;1.23;1.02;;;20.10;78.90;;;;;;5062325;28;20028;-66
2023/10/08 02:03:27;;;;;;;5.28;1.77;;;20.10;78.90;;;;;;5059757;28;20118;-63
2023/10/08 02:05:53;;;;;;;2.88;1.80;;;20.10;79.00;;;;;;5066734;28;20395;-63
2023/10/08 02:08:19;;;;;;;3.63;1.10;;;20.00;79.20;;;;;;5067741;28;20031;-63
2023/10/08 02:10:47;;;;;;;4.30;2.17;;;20.00;79.30;;;;;;5067282;28;20113;-63
2023/10/08 02:13:14;;;;;;;3.63;1.55;;;20.00;79.30;;;;;;5067935;28;20115;-63
2023/10/08 02:15:53;;;;;;;2.15;1.42;;;20.00;79.40;;;;;;5050522;28;20024;-63
2023/10/08 02:18:19;;;;;;;1.88;1.67;;;20.00;79.50;;;;;;5066562;28;20044;-63
2023/10/08 02:20:45;;;;;;;2.50;1.13;;;19.90;79.50;;;;;;5068025;28;20641;-66
2023/10/08 02:23:14;;;;;;;3.13;1.45;;;19.90;79.50;;;;;;5068173;28;20151;-66
2023/10/08 02:25:40;;;;;;;1.73;1.20;;;19.90;79.60;;;;;;5062848;28;20035;-66
2023/10/08 02:28:15;;;;;;;1.50;1.27;;;19.90;79.60;;;;;;5067403;28;20024;-66
2023/10/08 02:30:41;;;;;;;6.45;1.63;;;19.90;79.60;;;;;;5068572;28;20028;-66
2023/10/08 02:33:15;;;;;;;2.30;1.23;;;19.90;79.60;;;;;;5064884;28;20365;-66
2023/10/08 02:35:45;;;;;;;2.95;2.05;;;19.90;79.80;;;;;;5061610;28;20479;-66
2023/10/08 02:38:13;;;;;;;6.63;2.03;;;19.80;79.80;;;;;;5059330;28;20037;-66
2023/10/08 02:40:44;;;;;;;3.20;1.75;;;19.80;80.00;;;;;;5062123;28;20033;-64
2023/10/08 02:43:11;;;;;;;2.95;1.80;;;19.80;80.00;;;;;;5066088;28;20118;-63
2023/10/08 02:45:40;;;;;;;5.25;1.73;;;19.80;80.20;;;;;;5063720;28;20100;-63
2023/10/08 02:48:15;;;;;;;7.47;1.83;;;19.80;80.20;;;;;;5058170;28;20116;-66
2023/10/08 02:50:41;;;;;;;6.13;1.80;;;19.80;80.30;;;;;;5058911;28;20080;-66
2023/10/08 02:53:17;;;;;;;6.20;2.00;;;19.80;80.60;;;;;;5063582;28;20105;-66
2023/10/08 02:55:46;;;;;;;8.00;2.03;;;19.70;80.50;;;;;;5058816;28;20039;-64
2023/10/08 02:58:14;;;;;;;2.55;1.85;;;19.80;80.60;;;;;;5056630;28;20067;-64
2023/10/08 03:00:46;;;;;;;3.28;1.38;;;19.70;80.50;;;;;;5060583;28;20032;-64
2023/10/08 03:03:16;;;;;;;2.90;1.30;;;19.70;80.50;;;;;;5064118;28;20033;-63
2023/10/08 03:05:46;;;;;;;8.60;2.15;;;19.70;80.50;;;;;;5064829;28;20032;-62
2023/10/08 03:08:12;;;;;;;2.20;1.27;;;19.80;80.60;;;;;;5063491;28;20040;-65
2023/10/08 03:10:41;;;;;;;3.25;1.83;;;19.70;80.50;;;;;;5062018;28;20025;-65
2023/10/08 03:13:09;;;;;;;3.90;1.48;;;19.80;80.50;;;;;;5059849;28;20044;-65
2023/10/08 03:15:46;;;;;;;5.15;1.88;;;19.80;80.50;;;;;;5041780;28;20386;-66
2023/10/08 03:18:16;;;;;;;5.85;1.67;;;19.80;80.60;;;;;;5061462;28;20032;-65
2023/10/08 03:20:43;;;;;;;6.43;1.60;;;19.80;80.60;;;;;;5047727;28;20494;-62
2023/10/08 03:23:33;;;;;;;1.73;1.48;;;19.70;80.60;;;;;;5063091;28;20881;-63
2023/10/08 03:26:17;;;;;;;2.25;1.65;;;19.70;80.70;;;;;;5068868;28;20028;-62
2023/10/08 03:28:43;;;;;;;4.35;1.98;;;19.70;80.80;;;;;;5060545;28;20032;-62
2023/10/08 03:31:17;;;;;;;3.13;1.70;;;19.70;80.90;;;;;;5062085;28;20549;-63
2023/10/08 03:33:48;;;;;;;1.55;1.13;;;19.70;81.00;;;;;;5062666;28;20039;-63
2023/10/08 03:36:20;;;;;;;2.08;1.38;;;19.70;81.00;;;;;;5066030;28;20071;-63
2023/10/08 03:38:52;;;;;;;5.32;2.15;;;19.70;81.00;;;;;;5069773;28;20035;-63
2023/10/08 03:41:24;;;;;;;;;;;19.70;80.90;;;;;;5040559;28;20039;-63
2023/10/08 03:43:53;;;;;;;4.68;2.45;;;19.70;80.90;;;;;;5057320;28;19941;-62
2023/10/08 03:46:23;;;;;;;2.80;2.45;;;19.70;81.00;;;;;;5070639;28;20442;-63
2023/10/08 03:48:51;;;;;;;6.72;1.83;;;19.70;81.10;;;;;;5068029;28;20028;-63
2023/10/08 03:51:20;;;;;;;4.28;2.53;;;19.70;81.20;;;;;;5066822;28;20135;-66
2023/10/08 03:54:06;;;;;;;2.58;1.70;;;19.70;81.70;;;;;;5060003;28;20480;-66
2023/10/08 03:56:32;;;;;;;4.13;1.85;;;19.70;81.10;;;;;;5067856;28;20033;-65
2023/10/08 03:59:03;;;;;;;2.25;1.88;;;19.70;81.20;;;;;;5071154;28;20024;-63
2023/10/08 04:01:33;;;;;;;5.70;2.50;;;19.70;81.20;;;;;;5070693;28;20056;-63
2023/10/08 04:03:59;;;;;;;4.70;3.28;;;19.70;81.20;;;;;;5064594;28;20027;-63
2023/10/08 04:14:18;;;;;;;4.25;2.30;;;19.70;81.40;;;;;;5066238;28;20171;-62
2023/10/08 04:16:44;;;;;;;3.30;1.85;;;19.70;81.60;;;;;;5069315;28;20082;-62
2023/10/08 04:19:10;;;;;;;3.80;1.75;;;19.70;81.60;;;;;;5067862;28;20448;-64
2023/10/08 04:21:37;;;;;;;3.05;1.52;;;19.60;81.50;;;;;;5071203;28;20540;-62
2023/10/08 04:24:06;;;;;;;3.08;1.45;;;19.50;81.50;;;;;;5068917;28;20464;-63
2023/10/08 04:26:32;;;;;;;3.83;1.48;;;19.40;81.50;;;;;;5068454;28;20032;-62
2023/10/08 04:29:02;;;;;;;4.03;1.80;;;19.30;81.20;;;;;;5066527;28;20039;-62
2023/10/08 04:31:43;;;;;;;4.40;1.48;;;19.20;81.00;;;;;;5067477;28;20020;-65
2023/10/08 04:34:15;;;;;;;1.20;1.10;;;19.10;80.80;;;;;;5068928;28;20032;-62
2023/10/08 04:36:45;;;;;;;;;;;18.90;80.60;;;;;;5067671;28;20099;-65
2023/10/08 04:39:15;;;;;;;1.73;1.10;;;18.80;80.80;;;;;;5070217;28;20327;-65
2023/10/08 04:41:45;;;;;;;5.75;1.77;;;18.70;80.60;;;;;;5069265;28;20120;-65
2023/10/08 04:44:15;;;;;;;1.08;0.63;;;18.60;80.50;;;;;;5045502;28;20452;-62
2023/10/08 04:46:51;;;;;;;1.83;0.88;;;18.60;80.30;;;;;;5066255;28;20052;-62
2023/10/08 04:49:30;;;;;;;0.77;0.60;;;18.50;80.40;;;;;;5066719;28;20028;-62
2023/10/08 04:52:00;;;;;;;1.23;0.63;;;18.50;80.30;;;;;;5070105;28;20126;-65
2023/10/08 04:54:29;;;;;;;1.60;1.50;;;18.50;80.00;;;;;;5060965;28;20061;-65
2023/10/08 04:56:57;;;;;;;2.17;0.90;;;18.40;80.00;;;;;;5060084;28;20032;-65
2023/10/08 04:59:32;;;;;;;1.48;0.95;;;18.40;80.00;;;;;;5062994;28;20056;-62
2023/10/08 05:07:21;;;;;;;1.75;1.00;;;18.40;79.80;;;;;;5061236;28;20044;-65
2023/10/08 05:20:40;;;;;;;0.95;0.85;;;18.30;79.60;;;;;;5069762;28;20041;-65
2023/10/08 05:23:21;;;;;;;2.20;0.77;;;18.30;79.60;;;;;;5062511;28;20441;-65
2023/10/08 05:28:35;;;;;;;6.10;0.82;;;18.20;79.60;;;;;;5070139;28;20024;-66
2023/10/08 05:31:21;;;;;;;1.05;0.90;;;18.20;79.70;;;;;;5064694;28;20494;-65
2023/10/08 05:34:14;;;;;;;0.88;0.70;;;18.20;79.70;;;;;;5064514;28;20027;-65
2023/10/08 05:36:50;;;;;;;1.48;0.80;;;18.10;79.60;;;;;;5062335;28;20086;-65
2023/10/08 05:39:29;;;;;;;1.48;0.82;;;18.10;80.10;;;;;;5065344;28;20063;-66
2023/10/08 05:42:15;;;;;;;6.28;1.25;;;18.00;79.30;;;;;;5067365;28;20117;-66
2023/10/08 05:44:46;;;;;;;0.70;0.70;;;18.00;79.40;;;;;;5056604;28;20471;-66
2023/10/08 05:49:54;;;;;;;1.50;0.68;;;17.90;79.40;;;;;;5063119;28;20163;-62
2023/10/08 05:52:30;;;;;;;2.88;0.95;;;17.90;79.30;;;;;;5026294;28;20048;-63
2023/10/08 05:55:22;;;;;;;2.03;0.90;;;17.90;79.30;;;;;;5061623;28;20078;-62
2023/10/08 05:57:52;;;;;;;1.37;0.60;;;17.90;79.20;;;;;;5064864;28;20034;-62
2023/10/08 06:00:45;;;;;;;0.90;0.47;;;17.90;79.20;;;;;;5065867;28;20267;-62
2023/10/08 06:03:10;;;;;;;2.30;1.08;;;17.80;79.10;;;;;;5059928;28;20047;-63
2023/10/08 06:05:43;;;;;;;0.70;0.70;;;17.80;79.10;;;;;;5059508;28;20059;-62
2023/10/08 06:08:14;;;;;;;1.73;0.70;;;17.80;79.10;;;;;;5061456;28;20025;-62
2023/10/08 06:13:15;;;;;;;1.77;0.93;;;17.80;78.90;;;;;;5063265;28;20052;-64
2023/10/08 06:18:19;;;;;;;4.13;1.50;;;17.70;78.90;;;;;;5065574;28;20094;-62
2023/10/08 06:20:46;;;;;;;1.35;1.08;;;17.60;78.80;;;;;;5065336;28;20569;-64
2023/10/08 06:23:18;;;;;;;1.45;0.60;;;17.60;78.90;;;;;;5064173;28;20571;-64
2023/10/08 06:25:44;;;;;;;1.98;1.17;;;17.60;78.80;;;;;;5066769;28;20380;-67
2023/10/08 06:28:11;;;;;;;1.77;1.13;;;17.60;78.80;;;;;;5062224;28;20020;-64
2023/10/08 06:30:40;;;;;;;1.00;0.90;;;17.60;78.80;;;;;;5065649;28;20415;-62
2023/10/08 06:33:07;;;;;;;0.90;0.63;;;17.60;78.70;;;;;;5068929;28;20060;-62
2023/10/08 06:35:33;;;;;;;1.58;0.50;;;17.60;78.70;;;;;;5066574;28;20029;-62
2023/10/08 06:38:18;;;;;;;2.15;0.77;;;17.60;78.60;;;;;;5065029;28;20025;-62
2023/10/08 06:40:44;;;;;;;0.73;0.70;;;17.50;78.60;;;;;;5063836;28;20578;-65
2023/10/08 06:43:46;;;;;;;1.85;0.82;;;17.50;78.60;;;;;;5064317;28;20119;-62
2023/10/08 06:46:03;;;;;;;0.77;0.63;;;17.50;78.60;;;;;;5059804;28;20557;-62
2023/10/08 06:48:29;;;;;;;2.47;1.02;;;17.50;78.60;;;;;;5063020;28;20078;-62
2023/10/08 06:51:07;;;;;;;2.50;1.10;;;17.50;78.50;;;;;;5066768;28;20056;-62
2023/10/08 06:53:38;;;;;;;1.10;0.73;;;17.50;78.30;;;;;;5047479;28;20028;-65
2023/10/08 06:56:04;;;;;;;1.50;0.97;;;17.50;78.30;;;;;;5070223;28;20036;-62
2023/10/08 06:58:34;;;;;;;1.27;0.73;;;17.50;78.40;;;;;;5070424;28;20051;-63
2023/10/08 07:01:04;;;;;;;1.70;0.80;;;17.50;78.20;;;;;;5070232;28;20430;-65
2023/10/08 07:03:31;;;;;;;0.85;0.75;;;17.50;78.20;;;;;;5066488;28;20036;-65
2023/10/08 07:05:59;;;;;;;3.60;0.73;;;17.50;78.20;;;;;;5063625;28;20036;-65
2023/10/08 07:08:32;;;;;;;0.90;0.68;;;17.50;78.80;;;;;;5070968;28;20074;-65
2023/10/08 07:11:11;;;;;;;1.85;0.90;;;17.50;78.10;;;;;;5061718;28;20119;-65
2023/10/08 07:13:39;;;;;;;1.92;1.00;;;17.60;78.10;;;;;;5058877;28;20032;-65
2023/10/08 07:16:06;;;;;;;0.77;0.70;;;17.60;78.00;;;;;;5052714;28;20120;-65
2023/10/08 07:18:33;;;;;;;1.73;1.00;;;17.60;78.00;;;;;;5063918;28;20033;-65
2023/10/08 07:21:11;;;;;;;1.70;1.30;;;17.60;77.90;;;;;;5065903;28;20056;-65
2023/10/08 07:23:53;;;;;;;1.20;1.10;;;17.60;77.80;;;;;;5063218;28;20032;-65
2023/10/08 07:26:23;;;;;;;1.90;1.08;;;17.60;77.80;;;;;;5065770;28;20055;-65
2023/10/08 07:28:51;;;;;;;1.55;0.77;;;17.60;77.80;;;;;;5032159;28;20442;-65
2023/10/08 07:31:22;;;;;;;1.67;1.10;;;17.60;77.70;;;;;;5063108;28;20131;-65
2023/10/08 07:33:56;;;;;;;1.08;0.98;;;17.70;77.80;;;;;;5069852;28;20027;-62
2023/10/08 07:36:23;;;;;;;1.38;0.98;;;17.70;77.60;;;;;;5070140;28;20063;-62
2023/10/08 07:38:49;;;;;;;2.17;0.95;;;17.60;77.50;;;;;;5044807;28;20103;-65
2023/10/08 07:41:14;;;;;;;0.60;0.60;;;17.60;77.50;;;;;;5053864;28;20112;-65
2023/10/08 07:43:46;;;;;;;1.25;0.98;;;17.60;77.50;;;;;;5066503;28;20060;-65
2023/10/08 07:46:15;;;;;;;0.93;0.80;;;17.60;77.40;;;;;;5066990;28;20116;-65
2023/10/08 07:48:43;;;;;;;4.57;0.60;;;17.70;77.40;;;;;;5067741;28;20028;-65
2023/10/08 07:51:09;;;;;;;1.08;0.98;;;17.70;77.40;;;;;;5069287;28;20075;-65
2023/10/08 07:53:37;;;;;;;0.68;0.68;;;17.70;77.30;;;;;;5066022;28;20041;-65
2023/10/08 07:56:06;;;;;;;0.95;0.75;;;17.60;77.20;;;;;;5029556;28;20360;-65
2023/10/08 07:58:38;;;;;;;1.05;1.00;;;17.70;77.20;;;;;;5061430;28;20391;-65
2023/10/08 08:01:09;;;;;;;1.10;0.88;;;17.70;77.20;;;;;;5065094;28;20052;-65
2023/10/08 08:03:36;;;;;;;0.82;0.70;;;17.60;77.40;;;;;;5068440;28;20042;-65
2023/10/08 08:06:06;;;;;;;1.52;1.15;;;17.60;77.30;;;;;;5069435;28;20464;-65
2023/10/08 08:08:37;;;;;;;1.42;1.10;;;17.60;77.30;;;;;;5067567;28;20476;-62
2023/10/08 08:11:12;;;;;;;1.60;1.30;;;17.60;77.40;;;;;;5066077;28;20059;-63
2023/10/08 08:13:43;;;;;;;2.95;1.85;;;17.60;77.40;;;;;;5070021;28;20558;-66
2023/10/08 08:16:20;;;;;;;1.63;1.13;;;17.60;77.60;;;;;;5065525;28;20488;-63
2023/10/08 08:18:48;;;;;;;4.35;1.73;;;17.50;77.70;;;;;;5065272;28;20483;-66
2023/10/08 08:21:15;;;;;;;1.63;1.20;;;17.50;77.80;;;;;;5054199;28;20186;-64
2023/10/08 08:23:47;;;;;;;2.08;1.27;;;17.50;78.00;;;;;;5070796;28;20384;-64
2023/10/08 08:26:26;;;;;;;5.15;1.50;;;17.50;78.00;;;;;;5052418;28;20033;-65
2023/10/08 08:29:15;;;;;;;1.20;1.10;;;17.50;78.10;;;;;;5068983;28;20509;-65
2023/10/08 08:31:46;;;;;;;1.15;0.95;;;17.50;78.20;;;;;;5070758;28;20040;-62
2023/10/08 08:34:19;;;;;;;2.58;1.13;;;17.50;78.50;;;;;;5051629;28;20032;-64
2023/10/08 08:36:48;;;;;;;3.50;1.20;;;17.50;78.50;;;;;;5066452;28;20024;-63
2023/10/08 08:39:32;;;;;;;1.65;1.17;;;17.50;78.60;;;;;;5070816;28;20498;-64
2023/10/08 08:42:04;;;;;;;2.67;1.88;;;17.60;78.80;;;;;;5066177;28;20397;-63
2023/10/08 08:44:31;;;;;;;3.50;1.50;;;17.70;78.70;;;;;;5069820;28;20082;-64
2023/10/08 08:47:04;;;;;;;2.22;1.30;;;17.70;78.60;;;;;;5069590;28;20039;-63
2023/10/08 08:49:34;;;;;;;1.48;1.30;;;17.70;78.40;;;;;;5047847;28;20376;-64
2023/10/08 08:52:00;;;;;;;2.10;1.45;;;17.70;78.50;;;;;;5066665;28;20044;-63
2023/10/08 08:54:30;;;;;;;1.58;1.15;;;17.70;78.40;;;;;;5065439;28;20530;-64
2023/10/08 08:57:04;;;;;;;2.17;1.73;;;17.70;78.40;;;;;;5055731;28;20479;-62
2023/10/08 08:59:30;;;;;;;1.70;1.33;;;17.70;78.40;;;;;;5064667;28;20119;-65
2023/10/08 09:02:00;;;;;;;2.05;1.10;;;17.70;78.40;;;;;;5061480;28;20037;-66
2023/10/08 09:04:30;;;;;;;1.25;0.80;;;17.70;78.20;;;;;;5060438;28;20029;-63
2023/10/08 09:06:57;;;;;;;1.75;0.82;;;17.70;78.00;;;;;;5065445;28;20392;-63
2023/10/08 09:09:23;;;;;;;2.15;0.80;;;17.80;77.80;;;;;;5042997;28;20111;-66
2023/10/08 09:11:51;;;;;;;0.95;0.43;;;17.80;77.40;;;;;;5062435;28;20132;-66
2023/10/08 09:14:25;;;;;;;1.00;0.75;;;17.80;77.10;;;;;;5063774;28;20036;-66
2023/10/08 09:16:51;;;;;;;1.27;0.73;;;17.90;76.80;;;;;;5067954;28;20375;-66
2023/10/08 09:19:24;;;;;;;2.35;0.70;;;17.90;76.60;;;;;;5069781;28;20020;-66
2023/10/08 09:22:19;;;;;;;1.27;0.85;;;17.90;76.40;;;;;;5070645;28;20029;-66
2023/10/08 09:24:46;;;;;;;1.48;0.63;;;18.00;75.80;;;;;;5014388;28;20032;-65
2023/10/08 09:27:15;;;;;;;1.08;0.68;;;17.90;75.70;;;;;;5068564;28;20064;-65
2023/10/08 09:29:41;;;;;;;1.60;0.75;;;18.00;75.70;;;;;;5067463;28;20495;-65
2023/10/08 09:32:23;;;;;;;0.60;0.57;;;18.10;75.50;;;;;;5068763;28;20537;-65
2023/10/08 09:34:50;;;;;;;0.82;0.50;;;18.20;75.40;;;;;;5068475;28;20437;-63
2023/10/08 09:37:17;;;;;;;2.75;0.63;;;18.30;75.30;;;;;;5066980;28;20086;-63
2023/10/08 09:39:45;;;;;;;2.15;1.00;;;18.40;75.10;;;;;;5062560;28;20786;-63
2023/10/08 09:42:13;;;;;;;0.75;0.43;;;18.40;74.90;;;;;;5061639;28;20029;-63
2023/10/08 09:44:39;;;;;;;3.83;0.50;;;18.40;74.60;;;;;;5060979;28;20524;-63
2023/10/08 09:47:08;;;;;;;0.70;0.60;;;18.40;74.70;;;;;;5065584;28;20479;-63
2023/10/08 09:50:01;;;;;;;3.63;1.48;;;18.50;74.60;;;;;;5068152;28;20037;-63
2023/10/08 09:52:36;;;;;;;0.57;0.57;;;18.50;74.40;;;;;;5066776;28;20044;-62
2023/10/08 09:55:10;;;;;;;2.00;0.45;;;18.50;74.20;;;;;;5061937;28;20143;-62
2023/10/08 09:57:36;;;;;;;0.55;0.50;;;18.60;74.20;;;;;;5058915;28;20044;-65
2023/10/08 10:00:10;;;;;;;1.13;0.70;;;18.60;74.10;;;;;;5055131;28;20085;-65
2023/10/08 10:02:37;;;;;;;0.77;0.75;;;18.60;74.10;;;;;;5045362;28;20517;-65
2023/10/08 10:05:03;;;;;;;0.50;0.50;;;18.70;74.00;;;;;;5060935;28;20109;-64
2023/10/08 10:07:30;;;;;;;0.73;0.50;;;18.70;73.60;;;;;;5049091;28;20036;-65
2023/10/08 10:09:55;;;;;;;1.58;0.60;;;18.70;73.50;;;;;;5054629;28;20040;-65
2023/10/08 10:12:30;;;;;;;0.93;0.63;;;18.80;73.40;;;;;;5062191;28;20479;-65
2023/10/08 10:14:57;;;;;;;0.73;0.50;;;18.80;73.40;;;;;;5064211;28;21283;-66
2023/10/08 10:17:25;;;;;;;1.00;0.73;;;18.80;73.20;;;;;;5059164;28;20032;-66
2023/10/08 10:20:00;;;;;;;1.33;0.50;;;18.80;73.20;;;;;;5062036;28;20028;-66
2023/10/08 10:22:31;;;;;;;0.70;0.38;;;18.80;73.30;;;;;;5059089;28;20107;-66
2023/10/08 10:24:57;;;;;;;0.55;0.40;;;18.80;73.20;;;;;;5058985;28;20469;-66
2023/10/08 10:27:23;;;;;;;0.68;0.50;;;18.90;72.90;;;;;;5060209;28;20107;-66
2023/10/08 10:29:49;;;;;;;1.20;0.85;;;18.90;72.60;;;;;;5047363;28;20132;-66
2023/10/08 10:32:15;;;;;;;0.45;0.45;;;18.90;72.60;;;;;;5060377;28;20128;-66
2023/10/08 10:34:43;;;;;;;0.93;0.70;;;19.00;73.00;;;;;;5059517;28;20116;-65
2023/10/08 10:37:19;;;;;;;0.85;0.52;;;19.00;72.40;;;;;;5058841;28;20028;-66
2023/10/08 10:40:00;;;;;;;3.20;0.82;;;19.10;72.40;;;;;;5042332;28;20131;-66
2023/10/08 10:42:28;;;;;;;1.70;0.50;;;19.10;72.10;;;;;;5058191;28;21051;-64
2023/10/08 10:44:58;;;;;;;1.02;0.75;;;19.20;72.10;;;;;;5059355;28;20466;-65
2023/10/08 10:47:27;;;;;;;0.63;0.38;;;19.30;72.10;;;;;;5065091;28;20071;-65
2023/10/08 10:52:31;;;;;;;1.27;0.63;;;19.50;71.70;;;;;;5061484;28;20036;-65
2023/10/08 10:55:31;;;;;;;2.92;0.65;;;19.50;71.50;;;;;;5057390;28;20040;-65
2023/10/08 10:58:03;;;;;;;0.52;0.52;;;19.50;71.20;;;;;;5062185;28;20036;-64
2023/10/08 11:03:02;;;;;;;0.40;0.40;;;19.60;71.00;;;;;;5065444;28;20037;-65
2023/10/08 11:05:29;;;;;;;1.30;0.57;;;19.60;70.80;;;;;;5063921;28;20025;-65
2023/10/08 11:08:06;;;;;;;0.50;0.50;;;19.60;70.40;;;;;;5060392;28;20044;-65
2023/10/08 11:10:33;;;;;;;0.50;0.45;;;19.50;70.50;;;;;;5065187;28;20044;-63
2023/10/08 11:13:02;;;;;;;0.30;0.30;;;19.50;70.60;;;;;;5061115;28;20021;-63
2023/10/08 11:15:37;;;;;;;0.85;0.43;;;19.50;70.20;;;;;;5059177;28;20360;-63
2023/10/08 11:18:08;;;;;;;0.52;0.30;;;19.50;70.30;;;;;;5044222;28;20264;-64
2023/10/08 11:20:39;;;;;;;0.60;0.40;;;19.60;70.20;;;;;;5062725;28;20382;-63
2023/10/08 11:23:21;;;;;;;0.60;0.47;;;19.60;70.10;;;;;;5043854;28;20036;-66
2023/10/08 11:26:03;;;;;;;1.02;0.47;;;19.60;70.10;;;;;;5044896;28;20126;-64
2023/10/08 11:28:41;;;;;;;;;;;19.60;70.00;;;;;;5063500;28;20021;-64
2023/10/08 11:31:10;;;;;;;1.02;0.50;;;19.60;69.80;;;;;;5059138;28;19983;-65
2023/10/08 11:33:40;;;;;;;0.52;0.52;;;19.60;69.70;;;;;;5063138;28;20035;-66
2023/10/08 11:36:18;;;;;;;0.50;0.50;;;19.60;69.90;;;;;;5039986;28;20083;-64
2023/10/08 11:38:53;;;;;;;0.95;0.52;;;19.80;69.90;;;;;;5058780;28;20099;-65
2023/10/08 11:41:21;;;;;;;0.40;0.30;;;19.80;69.50;;;;;;5061235;28;20355;-65
2023/10/08 11:43:56;;;;;;;0.32;0.32;;;19.70;69.50;;;;;;5062456;28;20036;-65
2023/10/08 11:46:38;;;;;;;0.30;0.30;;;19.70;69.70;;;;;;5065476;28;20035;-65
2023/10/08 11:49:17;;;;;;;0.55;0.55;;;19.60;69.80;;;;;;5068717;28;20021;-65
2023/10/08 11:51:45;;;;;;;0.65;0.65;;;19.60;69.80;;;;;;5067085;28;20335;-65
2023/10/08 11:54:14;;;;;;;0.50;0.50;;;19.50;70.00;;;;;;5066951;28;20032;-65
2023/10/08 11:56:41;;;;;;;1.27;0.68;;;19.40;70.10;;;;;;5065437;28;20043;-65
2023/10/08 11:59:09;;;;;;;3.63;0.50;;;19.40;70.20;;;;;;5066418;28;20475;-63
2023/10/08 12:01:37;;;;;;;5.38;0.73;;;19.30;70.30;;;;;;5063747;28;20024;-63
2023/10/08 12:04:03;;;;;;;0.47;0.47;;;19.20;70.60;;;;;;5067346;28;20047;-62
2023/10/08 12:06:30;;;;;;;1.45;0.45;;;19.20;70.80;;;;;;5066762;28;20089;-63
2023/10/08 12:08:59;;;;;;;1.13;0.65;;;19.20;70.70;;;;;;5063379;28;20479;-63
2023/10/08 12:11:31;;;;;;;0.63;0.47;;;19.30;70.80;;;;;;5065516;28;20036;-63
2023/10/08 12:13:59;;;;;;;0.70;0.70;;;19.30;70.80;;;;;;5065261;28;20028;-62
2023/10/08 12:16:29;;;;;;;0.50;0.50;;;19.30;70.80;;;;;;5064252;28;20051;-64
2023/10/08 12:18:59;;;;;;;0.55;0.55;;;19.30;70.80;;;;;;5068704;28;20064;-62
2023/10/08 12:21:31;;;;;;;0.73;0.68;;;19.30;70.80;;;;;;5066616;28;20867;-62
2023/10/08 12:24:05;;;;;;;2.60;0.90;;;19.30;70.80;;;;;;5064494;28;20040;-62
2023/10/08 12:26:31;;;;;;;0.63;0.63;;;19.30;71.40;;;;;;5065454;28;20044;-62
2023/10/08 12:28:57;;;;;;;0.40;0.40;;;19.20;70.90;;;;;;5065026;28;20475;-62
2023/10/08 12:31:24;;;;;;;0.50;0.50;;;19.20;71.20;;;;;;5066023;28;20029;-65
2023/10/08 12:33:53;;;;;;;0.63;0.63;;;19.30;71.40;;;;;;5067073;28;20070;-65
2023/10/08 12:36:22;;;;;;;0.82;0.75;;;19.30;71.50;;;;;;5061764;28;20414;-64
2023/10/08 12:38:49;;;;;;;2.60;0.80;;;19.30;71.50;;;;;;5064201;28;20037;-64
2023/10/08 12:41:18;;;;;;;3.92;0.65;;;19.30;71.60;;;;;;5065350;28;20060;-62
2023/10/08 12:43:45;;;;;;;0.55;0.50;;;19.30;71.60;;;;;;5065868;28;20046;-62
2023/10/08 12:46:18;;;;;;;0.80;0.45;;;19.30;71.60;;;;;;5067235;28;20024;-65
2023/10/08 12:48:53;;;;;;;1.42;0.50;;;19.30;71.60;;;;;;5062448;28;20056;-65
2023/10/08 12:51:23;;;;;;;0.50;0.50;;;19.30;71.80;;;;;;5064398;28;20052;-65
2023/10/08 12:54:03;;;;;;;2.03;0.50;;;19.20;71.70;;;;;;5063982;28;20535;-65
2023/10/08 12:56:32;;;;;;;1.80;0.85;;;19.20;71.80;;;;;;5063758;28;20134;-65
2023/10/08 12:58:58;;;;;;;0.60;0.60;;;19.10;72.00;;;;;;5066027;28;20529;-64
2023/10/08 13:01:28;;;;;;;0.30;0.30;;;19.10;72.00;;;;;;5065753;28;20033;-61
2023/10/08 13:03:59;;;;;;;1.38;0.47;;;19.10;72.10;;;;;;5065100;28;20090;-62
2023/10/08 13:06:29;;;;;;;0.65;0.57;;;19.00;72.10;;;;;;5066492;28;20055;-62
2023/10/08 13:08:57;;;;;;;0.57;0.50;;;19.00;72.40;;;;;;5064343;28;20352;-64
2023/10/08 13:11:29;;;;;;;0.50;0.47;;;19.10;72.60;;;;;;5073975;28;20037;-62
2023/10/08 13:13:56;;;;;;;0.40;0.40;;;19.10;72.80;;;;;;5068863;28;20032;-62
2023/10/08 13:16:24;;;;;;;0.30;0.30;;;19.10;73.70;;;;;;5068912;28;20123;-62
2023/10/08 13:18:52;;;;;;;0.32;0.32;;;19.10;73.10;;;;;;5061618;28;20391;-62
2023/10/08 13:21:21;;;;;;;2.42;0.57;;;19.20;73.10;;;;;;5067835;28;20028;-62
2023/10/08 13:23:48;;;;;;;4.22;1.30;;;19.20;73.10;;;;;;5046770;28;20260;-62
2023/10/08 13:26:17;;;;;;;0.68;0.50;;;19.10;73.10;;;;;;5066933;28;20475;-62
2023/10/08 13:28:44;;;;;;;0.47;0.47;;;19.00;73.30;;;;;;5067540;28;20032;-62
2023/10/08 13:31:10;;;;;;;2.22;0.77;;;19.00;73.40;;;;;;5066512;28;20028;-62
2023/10/08 13:33:42;;;;;;;0.60;0.60;;;18.90;73.50;;;;;;5064119;28;20033;-62
2023/10/08 13:36:09;;;;;;;0.70;0.65;;;18.80;73.70;;;;;;5047359;28;20035;-62
2023/10/08 13:38:36;;;;;;;0.50;0.50;;;18.80;73.90;;;;;;5065213;28;20028;-64
2023/10/08 13:41:20;;;;;;;0.60;0.60;;;18.80;74.00;;;;;;5066781;28;20024;-64
2023/10/08 13:43:47;;;;;;;2.10;0.45;;;18.80;74.60;;;;;;5065845;28;20399;-65
2023/10/08 13:46:16;;;;;;;0.40;0.40;;;18.80;74.70;;;;;;5063984;28;20091;-63
2023/10/08 13:48:49;;;;;;;0.40;0.40;;;18.80;74.70;;;;;;5062330;28;20021;-65
2023/10/08 13:51:25;;;;;;;0.50;0.50;;;18.80;74.70;;;;;;5062710;28;20068;-66
2023/10/08 13:53:53;;;;;;;0.80;0.73;;;18.90;74.90;;;;;;5063364;28;20024;-65
2023/10/08 13:56:26;;;;;;;1.15;0.47;;;19.00;74.80;;;;;;5065623;28;20170;-65
2023/10/08 13:58:57;;;;;;;0.50;0.50;;;19.00;74.70;;;;;;5061152;28;20021;-65
2023/10/08 14:01:25;;;;;;;0.45;0.45;;;19.10;74.60;;;;;;5063716;28;20494;-65